createdAt,value
2022-08-25T00:03:58.938Z,69
2022-08-25T00:08:58.221Z,70
2022-08-25T00:13:57.805Z,71
2022-08-25T00:18:57.359Z,71
2022-08-25T00:23:56.705Z,71
2022-08-25T00:29:02.903Z,70
2022-08-25T00:33:53.732Z,70
2022-08-25T00:38:52.423Z,70
2022-08-25T00:43:52.119Z,70
2022-08-25T00:48:52.040Z,70
2022-08-25T00:53:51.510Z,71
2022-08-25T00:58:51.520Z,71
2022-08-25T01:03:50.410Z,72
2022-08-25T01:08:49.770Z,72
2022-08-25T01:13:47.985Z,73
2022-08-25T01:18:47.202Z,73
2022-08-25T01:23:46.155Z,73
2022-08-25T01:28:45.032Z,74
2022-08-25T01:33:44.834Z,74
2022-08-25T01:38:43.985Z,74
2022-08-25T01:43:44.497Z,75
2022-08-25T01:48:43.253Z,75
2022-08-25T01:53:42.548Z,75
2022-08-25T01:58:40.770Z,76
2022-08-25T02:03:43.091Z,76
2022-08-25T02:08:39.110Z,76
2022-08-25T02:13:38.130Z,77
2022-08-25T02:18:37.737Z,78
2022-08-25T02:23:37.273Z,78
2022-08-25T02:28:36.731Z,79
2022-08-25T02:33:35.913Z,79
2022-08-25T02:38:35.934Z,79
2022-08-25T02:43:32.953Z,78
2022-08-25T02:48:32.266Z,77
2022-08-25T02:53:31.427Z,76
2022-08-25T02:58:30.615Z,75
2022-08-25T02:59:52.622Z,75
2022-08-25T03:04:55.819Z,75
2022-08-25T03:09:52.195Z,75
2022-08-25T03:14:51.516Z,75
2022-08-25T03:19:51.479Z,75
2022-08-25T03:24:48.094Z,75
2022-08-25T03:29:47.345Z,76
2022-08-25T03:34:46.479Z,77
2022-08-25T03:39:46.162Z,77
2022-08-25T03:44:46.007Z,78
2022-08-25T03:49:45.360Z,79
2022-08-25T03:54:44.738Z,79
2022-08-25T03:58:46.218Z,79
2022-08-25T04:00:15.206Z,79
2022-08-25T04:05:16.447Z,79
2022-08-25T04:10:15.036Z,79
2022-08-25T04:15:14.166Z,80
2022-08-25T04:20:15.024Z,80
2022-08-25T04:25:05.532Z,81
2022-08-25T04:30:04.794Z,81
2022-08-25T04:35:03.546Z,81
2022-08-25T04:40:03.029Z,81
2022-08-25T04:45:01.736Z,82
2022-08-25T04:50:00.876Z,82
2022-08-25T04:55:00.316Z,83
2022-08-25T04:59:21.093Z,83
2022-08-25T05:04:29.312Z,83
2022-08-25T05:09:22.669Z,84
2022-08-25T05:14:19.276Z,84
2022-08-25T05:19:17.664Z,84
2022-08-25T05:24:17.418Z,84
2022-08-25T05:29:16.300Z,83
2022-08-25T05:34:15.162Z,82
2022-08-25T05:39:14.522Z,81
2022-08-25T05:44:20.505Z,80
2022-08-25T05:49:13.322Z,79
2022-08-25T05:54:20.042Z,78
2022-08-25T05:59:18.264Z,77
2022-08-25T06:04:18.148Z,76
2022-08-25T06:09:17.574Z,76
2022-08-25T06:14:17.827Z,75
2022-08-25T06:19:16.785Z,74
2022-08-25T06:24:16.598Z,73
2022-08-25T06:29:15.787Z,73
2022-08-25T06:34:14.108Z,72
2022-08-25T06:39:13.928Z,71
2022-08-25T06:44:13.750Z,70
2022-08-25T06:49:13.467Z,70
2022-08-25T06:54:05.593Z,69
2022-08-25T06:58:52.897Z,69
2022-08-25T07:03:53.510Z,68
2022-08-25T07:08:52.347Z,67
2022-08-25T07:13:49.079Z,66
2022-08-25T07:18:49.595Z,65
2022-08-25T07:23:48.410Z,65
2022-08-25T07:28:48.683Z,63
2022-08-25T07:33:48.354Z,62
2022-08-25T07:38:48.575Z,60
2022-08-25T07:43:51.050Z,59
2022-08-25T07:48:54.044Z,57
2022-08-25T07:53:45.630Z,56
2022-08-25T07:58:45.355Z,55
2022-08-25T08:03:51.727Z,54
2022-08-25T08:08:44.598Z,53
2022-08-25T08:13:43.724Z,52
2022-08-25T08:18:43.837Z,51
2022-08-25T08:23:43.867Z,50
2022-08-25T08:28:42.268Z,50
2022-08-25T08:33:41.700Z,49
2022-08-25T08:38:41.421Z,48
2022-08-25T08:43:40.075Z,49
2022-08-25T08:48:38.517Z,48
2022-08-25T08:53:37.580Z,47
2022-08-25T08:58:36.837Z,47
2022-08-25T08:59:58.921Z,47
2022-08-25T09:04:58.399Z,46
2022-08-25T09:09:56.948Z,45
2022-08-25T09:14:55.972Z,45
2022-08-25T09:19:54.800Z,45
2022-08-25T09:25:46.882Z,44
2022-08-25T09:29:53.634Z,43
2022-08-25T09:34:53.568Z,42
2022-08-25T09:39:53.690Z,43
2022-08-25T09:44:52.665Z,42
2022-08-25T09:49:51.390Z,42
2022-08-25T09:54:50.801Z,42
2022-08-25T09:58:58.190Z,42
2022-08-25T10:03:55.604Z,42
2022-08-25T10:08:54.718Z,41
2022-08-25T10:13:54.957Z,42
2022-08-25T10:18:54.636Z,42
2022-08-25T10:23:54.155Z,41
2022-08-25T10:28:52.977Z,41
2022-08-25T10:33:52.230Z,40
2022-08-25T10:38:50.735Z,40
2022-08-25T10:43:50.337Z,39
2022-08-25T10:48:50.828Z,39
2022-08-25T10:53:50.615Z,38
2022-08-25T10:58:48.295Z,38
2022-08-25T11:03:48.127Z,37
2022-08-25T11:08:46.584Z,37
2022-08-25T11:13:46.859Z,37
2022-08-25T11:18:44.682Z,37
2022-08-25T11:23:43.828Z,36
2022-08-25T11:28:42.924Z,36
2022-08-25T11:33:42.972Z,36
2022-08-25T11:38:42.745Z,34
2022-08-25T11:43:42.523Z,34
2022-08-25T11:48:41.597Z,35
2022-08-25T11:53:43.149Z,35
2022-08-25T11:58:41.451Z,35
2022-08-25T12:03:39.042Z,35
2022-08-25T12:08:38.980Z,35
2022-08-25T12:13:38.425Z,35
2022-08-25T12:18:46.524Z,35
2022-08-25T12:23:37.112Z,35
2022-08-25T12:28:36.302Z,34
2022-08-25T12:33:35.269Z,34
2022-08-25T12:38:37.865Z,37
2022-08-25T12:43:38.229Z,36
2022-08-25T12:48:31.793Z,35
2022-08-25T12:53:31.804Z,34
2022-08-25T12:59:00.521Z,35
2022-08-25T12:59:52.829Z,34
2022-08-25T13:04:52.916Z,35
2022-08-25T13:09:52.014Z,35
2022-08-25T13:14:51.461Z,35
2022-08-25T13:19:48.817Z,35
2022-08-25T13:24:50.544Z,34
2022-08-25T13:29:50.225Z,34
2022-08-25T13:34:46.068Z,35
2022-08-25T13:39:58.760Z,37
2022-08-25T13:44:54.279Z,37
2022-08-25T13:49:43.225Z,35
2022-08-25T13:54:42.721Z,34
2022-08-25T13:59:18.913Z,34
2022-08-25T14:04:18.441Z,34
2022-08-25T14:09:17.981Z,34
2022-08-25T14:14:18.137Z,33
2022-08-25T14:19:21.023Z,33
2022-08-25T14:24:16.950Z,33
2022-08-25T14:29:16.463Z,32
2022-08-25T14:34:15.521Z,32
2022-08-25T14:39:14.633Z,33
2022-08-25T14:44:14.126Z,33
2022-08-25T14:49:13.985Z,33
2022-08-25T14:54:05.987Z,33
2022-08-25T14:58:54.986Z,33
2022-08-25T15:03:52.321Z,32
2022-08-25T15:08:51.909Z,32
2022-08-25T15:13:50.682Z,33
2022-08-25T15:18:47.969Z,32
2022-08-25T15:23:53.133Z,32
2022-08-25T15:28:47.031Z,32
2022-08-25T15:33:47.046Z,32
2022-08-25T15:38:47.182Z,32
2022-08-25T15:43:45.762Z,32
2022-08-25T15:48:44.740Z,32
2022-08-25T15:53:42.406Z,31
2022-08-25T15:58:50.729Z,31
2022-08-25T16:00:03.212Z,31
2022-08-25T16:05:02.653Z,30
2022-08-25T16:10:04.059Z,31
2022-08-25T16:15:02.230Z,31
2022-08-25T16:20:01.642Z,32
2022-08-25T16:25:00.336Z,32
2022-08-25T16:29:59.509Z,32
2022-08-25T16:34:57.175Z,32
2022-08-25T16:39:56.748Z,32
2022-08-25T16:44:55.847Z,32
2022-08-25T16:49:55.562Z,32
2022-08-25T16:54:55.045Z,31
2022-08-25T16:59:17.689Z,31
2022-08-25T17:04:16.429Z,32
2022-08-25T17:09:24.004Z,34
2022-08-25T17:14:18.535Z,35
2022-08-25T17:19:20.556Z,35
2022-08-25T17:24:18.978Z,34
2022-08-25T17:29:19.102Z,34
2022-08-25T17:34:24.220Z,34
2022-08-25T17:39:17.038Z,34
2022-08-25T17:44:16.259Z,34
2022-08-25T17:49:16.084Z,34
2022-08-25T17:54:14.908Z,35
2022-08-25T17:58:53.991Z,37
2022-08-25T18:03:53.814Z,38
2022-08-25T18:09:00.074Z,39
2022-08-25T18:13:53.748Z,40
2022-08-25T18:18:53.801Z,41
2022-08-25T18:23:52.121Z,41
2022-08-25T18:28:51.853Z,42
2022-08-25T18:33:52.240Z,44
2022-08-25T18:38:47.780Z,45
2022-08-25T18:43:47.391Z,46
2022-08-25T18:48:46.625Z,47
2022-08-25T18:53:51.414Z,48
2022-08-25T18:58:45.200Z,48
2022-08-25T19:00:15.518Z,49
2022-08-25T19:05:15.293Z,50
2022-08-25T19:10:05.692Z,51
2022-08-25T19:15:05.565Z,51
2022-08-25T19:20:05.140Z,52
2022-08-25T19:25:03.305Z,52
2022-08-25T19:30:02.978Z,53
2022-08-25T19:35:02.647Z,54
2022-08-25T19:40:01.329Z,54
2022-08-25T19:45:00.498Z,55
2022-08-25T19:49:59.012Z,55
2022-08-25T19:54:57.806Z,56
2022-08-25T19:59:17.951Z,56
2022-08-25T20:04:17.446Z,57
2022-08-25T20:09:36.118Z,57
2022-08-25T20:14:15.927Z,58
2022-08-25T20:19:16.644Z,58
2022-08-25T20:24:15.351Z,58
2022-08-25T20:29:14.790Z,60
2022-08-25T20:34:19.007Z,60
2022-08-25T20:39:18.842Z,60
2022-08-25T20:44:18.449Z,60
2022-08-25T20:49:17.239Z,61
2022-08-25T20:54:17.324Z,62
2022-08-25T20:59:02.040Z,62
2022-08-25T21:04:00.800Z,62
2022-08-25T21:09:00.307Z,63
2022-08-25T21:13:57.009Z,63
2022-08-25T21:18:56.068Z,64
2022-08-25T21:23:55.525Z,64
2022-08-25T21:28:55.404Z,64
2022-08-25T21:33:55.089Z,65
2022-08-25T21:38:54.464Z,64
2022-08-25T21:43:53.421Z,65
2022-08-25T21:48:52.446Z,65
2022-08-25T21:53:51.592Z,65
2022-08-25T21:58:49.856Z,65
2022-08-25T22:00:21.963Z,65
2022-08-25T22:05:18.750Z,66
2022-08-25T22:10:18.669Z,66
2022-08-25T22:15:18.590Z,67
2022-08-25T22:20:17.847Z,67
2022-08-25T22:25:15.550Z,67
2022-08-25T22:30:14.691Z,68
2022-08-25T22:35:14.259Z,68
2022-08-25T22:40:15.163Z,69
2022-08-25T22:45:06.491Z,69
2022-08-25T22:50:05.312Z,70
2022-08-25T22:55:04.195Z,70
2022-08-25T22:59:24.988Z,70
2022-08-25T23:04:25.754Z,70
2022-08-25T23:09:25.612Z,70
2022-08-25T23:14:22.734Z,70
2022-08-25T23:19:28.721Z,70
2022-08-25T23:24:30.912Z,70
2022-08-25T23:29:21.295Z,71
2022-08-25T23:34:20.759Z,71
2022-08-25T23:39:22.713Z,71
2022-08-25T23:44:18.838Z,72
2022-08-25T23:49:19.415Z,72
2022-08-25T23:54:16.623Z,72
2022-08-25T23:59:06.418Z,72
